createdAt,value
2018-04-22T00:01:41.517Z,9.07
2018-04-22T00:04:09.857Z,8.80
2018-04-22T00:06:38.161Z,9.03
2018-04-22T00:09:06.477Z,8.63
2018-04-22T00:11:35.540Z,9.10
2018-04-22T00:14:03.861Z,9.80
2018-04-22T00:16:32.164Z,9.67
2018-04-22T00:19:00.572Z,8.93
2018-04-22T00:21:28.896Z,8.83
2018-04-22T00:23:57.999Z,9.37
2018-04-22T00:26:27.044Z,8.80
2018-04-22T00:28:55.372Z,10.40
2018-04-22T00:31:24.423Z,8.87
2018-04-22T00:33:52.742Z,9.37
2018-04-22T00:36:21.048Z,10.60
2018-04-22T00:38:49.391Z,10.30
2018-04-22T00:41:18.451Z,9.77
2018-04-22T00:43:46.768Z,9.50
2018-04-22T00:46:15.832Z,10.17
2018-04-22T00:48:44.164Z,8.77
2018-04-22T00:51:12.448Z,10.00
2018-04-22T00:53:52.638Z,10.23
2018-04-22T00:56:21.014Z,10.87
2018-04-22T00:58:49.436Z,10.90
2018-04-22T01:01:18.575Z,10.73
2018-04-22T01:03:46.927Z,10.00
2018-04-22T01:06:15.228Z,10.40
2018-04-22T01:08:43.559Z,10.70
2018-04-22T01:11:11.865Z,10.60
2018-04-22T01:13:40.181Z,10.43
2018-04-22T01:16:08.493Z,10.60
2018-04-22T01:18:37.573Z,10.30
2018-04-22T01:21:05.896Z,10.33
2018-04-22T01:23:34.229Z,9.87
2018-04-22T01:26:02.524Z,10.50
2018-04-22T01:28:31.624Z,10.47
2018-04-22T01:31:00.683Z,10.80
2018-04-22T01:33:29.013Z,11.13
2018-04-22T01:35:57.337Z,10.37
2018-04-22T01:38:25.673Z,10.90
2018-04-22T01:40:53.969Z,10.80
2018-04-22T01:43:22.319Z,10.47
2018-04-22T01:45:50.657Z,11.20
2018-04-22T01:48:18.992Z,10.87
2018-04-22T01:50:47.280Z,10.90
2018-04-22T01:53:15.612Z,10.57
2018-04-22T01:55:44.689Z,10.47
2018-04-22T01:58:13.292Z,10.50
2018-04-22T02:00:42.380Z,9.83
2018-04-22T02:03:10.682Z,10.97
2018-04-22T02:05:39.025Z,9.70
2018-04-22T02:08:07.343Z,9.57
2018-04-22T02:10:35.665Z,10.50
2018-04-22T02:13:03.967Z,10.60
2018-04-22T02:15:32.280Z,11.10
2018-04-22T02:18:00.575Z,11.43
2018-04-22T02:20:28.905Z,10.90
2018-04-22T02:22:57.977Z,10.97
2018-04-22T02:25:26.291Z,11.00
2018-04-22T02:27:54.598Z,10.57
2018-04-22T02:30:22.924Z,10.23
2018-04-22T02:32:51.213Z,10.17
2018-04-22T02:35:20.309Z,10.40
2018-04-22T02:37:49.369Z,10.63
2018-04-22T02:40:17.732Z,10.57
2018-04-22T02:42:46.144Z,11.37
2018-04-22T02:45:14.511Z,10.57
2018-04-22T02:47:42.893Z,11.10
2018-04-22T02:50:11.296Z,10.63
2018-04-22T02:52:39.615Z,11.07
2018-04-22T02:55:07.934Z,10.43
2018-04-22T02:57:36.248Z,11.03
2018-04-22T03:00:04.568Z,9.87
2018-04-22T03:02:32.862Z,10.30
2018-04-22T03:05:01.202Z,10.53
2018-04-22T03:07:29.493Z,10.83
2018-04-22T03:09:57.835Z,10.97
2018-04-22T03:12:26.172Z,11.90
2018-04-22T03:14:54.592Z,11.20
2018-04-22T03:17:22.934Z,10.40
2018-04-22T03:19:52.083Z,11.47
2018-04-22T03:22:20.454Z,10.93
2018-04-22T03:24:48.875Z,10.90
2018-04-22T03:27:17.259Z,10.73
2018-04-22T03:29:46.426Z,11.00
2018-04-22T03:32:15.573Z,11.53
2018-04-22T03:34:43.939Z,10.87
2018-04-22T03:37:12.319Z,10.70
2018-04-22T03:39:40.673Z,11.03
2018-04-22T03:42:09.090Z,11.73
2018-04-22T03:44:37.540Z,11.10
2018-04-22T03:47:05.945Z,11.43
2018-04-22T03:49:35.118Z,10.47
2018-04-22T03:52:03.540Z,10.63
2018-04-22T03:54:32.713Z,11.90
2018-04-22T03:57:01.067Z,11.13
2018-04-22T03:59:29.417Z,11.80
2018-04-22T04:01:57.818Z,11.57
2018-04-22T04:04:26.200Z,10.87
2018-04-22T04:06:54.616Z,10.27
2018-04-22T04:09:22.989Z,10.07
2018-04-22T04:11:51.357Z,10.93
2018-04-22T04:14:19.718Z,11.60
2018-04-22T04:16:48.003Z,11.37
2018-04-22T04:19:28.289Z,10.90
2018-04-22T04:22:09.209Z,10.20
2018-04-22T04:24:50.520Z,10.33
2018-04-22T04:30:20.502Z,10.60
2018-04-22T04:32:48.809Z,10.17
2018-04-22T04:35:17.114Z,10.70
2018-04-22T04:37:45.426Z,10.80
2018-04-22T04:40:14.533Z,10.37
2018-04-22T04:42:42.823Z,10.47
2018-04-22T04:45:11.140Z,11.27
2018-04-22T04:47:39.442Z,10.90
2018-04-22T04:50:07.761Z,10.97
2018-04-22T04:52:36.071Z,11.30
2018-04-22T04:55:04.389Z,10.40
2018-04-22T04:57:33.484Z,11.60
2018-04-22T05:00:02.576Z,11.73
2018-04-22T05:02:31.644Z,11.70
2018-04-22T05:04:59.972Z,10.80
2018-04-22T05:07:28.268Z,11.00
2018-04-22T05:09:56.566Z,11.27
2018-04-22T05:12:24.883Z,11.23
2018-04-22T05:14:53.936Z,11.60
2018-04-22T05:17:22.278Z,10.83
2018-04-22T05:19:50.597Z,11.83
2018-04-22T05:22:18.956Z,11.27
2018-04-22T05:24:47.262Z,11.10
2018-04-22T05:27:15.623Z,11.60
2018-04-22T05:29:44.677Z,11.23
2018-04-22T05:32:13.013Z,11.37
2018-04-22T05:34:41.326Z,11.20
2018-04-22T05:37:10.410Z,11.53
2018-04-22T05:39:38.693Z,11.13
2018-04-22T05:42:07.027Z,11.23
2018-04-22T05:44:35.323Z,11.57
2018-04-22T05:47:03.651Z,10.30
2018-04-22T05:49:31.986Z,11.63
2018-04-22T05:52:00.316Z,10.77
2018-04-22T05:54:28.627Z,11.33
2018-04-22T05:56:56.966Z,11.67
2018-04-22T05:59:25.274Z,12.70
2018-04-22T06:01:53.587Z,11.87
2018-04-22T06:04:22.648Z,12.60
2018-04-22T06:06:50.997Z,13.03
2018-04-22T06:09:25.535Z,12.53
2018-04-22T06:11:54.147Z,12.80
2018-04-22T06:14:22.852Z,12.90
2018-04-22T06:16:51.249Z,11.90
2018-04-22T06:19:19.917Z,12.23
2018-04-22T06:21:48.313Z,12.93
2018-04-22T06:24:16.633Z,15.00
2018-04-22T06:26:44.968Z,14.73
2018-04-22T06:29:14.034Z,13.93
2018-04-22T06:31:42.369Z,14.03
2018-04-22T06:34:10.974Z,14.27
2018-04-22T06:36:39.510Z,15.17
2018-04-22T06:39:07.922Z,13.77
2018-04-22T06:41:36.273Z,15.20
2018-04-22T06:44:04.645Z,15.23
2018-04-22T06:46:33.129Z,14.47
2018-04-22T06:49:01.530Z,14.77
2018-04-22T06:51:29.931Z,14.73
2018-04-22T06:53:59.037Z,14.53
2018-04-22T06:56:27.445Z,14.60
2018-04-22T06:58:56.553Z,15.87
2018-04-22T07:01:25.673Z,13.60
2018-04-22T07:03:54.105Z,14.33
2018-04-22T07:06:22.473Z,14.30
2018-04-22T07:08:50.843Z,14.60
2018-04-22T07:11:19.201Z,14.20
2018-04-22T07:13:47.569Z,15.10
2018-04-22T07:16:15.896Z,15.50
2018-04-22T07:18:44.282Z,15.20
2018-04-22T07:21:12.619Z,15.23
2018-04-22T07:23:40.973Z,13.87
2018-04-22T07:26:09.351Z,15.30
2018-04-22T07:28:37.762Z,14.07
2018-04-22T07:31:06.159Z,13.40
2018-04-22T07:33:34.571Z,13.00
2018-04-22T07:36:03.664Z,13.37
2018-04-22T07:38:32.057Z,13.90
2018-04-22T07:41:00.416Z,14.47
2018-04-22T07:43:28.793Z,13.90
2018-04-22T07:45:57.964Z,11.90
2018-04-22T07:48:26.332Z,11.77
2018-04-22T07:50:54.687Z,12.33
2018-04-22T07:53:23.143Z,12.80
2018-04-22T07:55:51.489Z,12.27
2018-04-22T07:58:19.875Z,11.40
2018-04-22T08:00:49.080Z,12.77
2018-04-22T08:03:18.281Z,11.23
2018-04-22T08:05:46.661Z,11.00
2018-04-22T08:08:15.045Z,12.33
2018-04-22T08:10:44.161Z,11.80
2018-04-22T08:13:12.559Z,11.03
2018-04-22T08:15:40.909Z,11.23
2018-04-22T08:18:09.311Z,9.23
2018-04-22T08:20:37.648Z,10.80
2018-04-22T08:23:06.087Z,10.77
2018-04-22T08:25:35.217Z,10.20
2018-04-22T08:28:03.537Z,9.87
2018-04-22T08:30:31.873Z,9.53
2018-04-22T08:33:00.212Z,10.07
2018-04-22T08:35:28.529Z,8.77
2018-04-22T08:37:56.849Z,9.40
2018-04-22T08:40:25.183Z,9.07
2018-04-22T08:42:53.507Z,8.97
2018-04-22T08:45:21.796Z,9.17
2018-04-22T08:47:50.145Z,9.30
2018-04-22T08:50:18.459Z,7.70
2018-04-22T08:52:46.780Z,8.00
2018-04-22T08:55:15.068Z,8.33
2018-04-22T08:57:44.159Z,7.97
2018-04-22T09:00:12.450Z,7.50
2018-04-22T09:02:41.540Z,7.67
2018-04-22T09:05:10.586Z,7.87
2018-04-22T09:07:38.908Z,7.47
2018-04-22T09:10:07.206Z,6.83
2018-04-22T09:12:36.309Z,7.40
2018-04-22T09:15:04.641Z,7.03
2018-04-22T09:17:32.961Z,6.80
2018-04-22T09:20:01.305Z,7.03
2018-04-22T09:22:29.643Z,7.50
2018-04-22T09:24:57.931Z,7.20
2018-04-22T09:27:26.253Z,7.00
2018-04-22T09:29:55.308Z,7.30
2018-04-22T09:32:23.635Z,8.80
2018-04-22T09:34:52.701Z,8.57
2018-04-22T09:37:21.016Z,7.83
2018-04-22T09:39:49.308Z,8.00
2018-04-22T09:42:17.628Z,7.57
2018-04-22T09:44:45.929Z,6.57
2018-04-22T09:47:14.262Z,6.43
2018-04-22T09:49:42.581Z,6.10
2018-04-22T09:52:10.905Z,6.30
2018-04-22T09:54:39.264Z,7.20
2018-04-22T09:57:07.553Z,5.90
2018-04-22T09:59:35.871Z,6.10
2018-04-22T10:02:04.159Z,5.83
2018-04-22T10:04:38.098Z,6.20
2018-04-22T10:07:07.177Z,6.07
2018-04-22T10:09:35.557Z,6.07
2018-04-22T10:12:04.627Z,6.47
2018-04-22T10:14:32.956Z,6.10
2018-04-22T10:17:01.232Z,5.87
2018-04-22T10:19:29.561Z,6.10
2018-04-22T10:21:57.875Z,6.83
2018-04-22T10:24:26.228Z,5.97
2018-04-22T10:26:54.521Z,5.80
2018-04-22T10:29:23.631Z,5.40
2018-04-22T10:31:51.928Z,5.07
2018-04-22T10:34:20.238Z,5.37
2018-04-22T10:36:48.544Z,5.00
2018-04-22T10:39:17.636Z,5.40
2018-04-22T10:41:45.920Z,4.93
2018-04-22T10:44:15.014Z,5.00
2018-04-22T10:46:44.067Z,5.23
2018-04-22T10:49:12.400Z,4.77
2018-04-22T10:51:41.449Z,4.60
2018-04-22T10:54:09.761Z,4.20
2018-04-22T10:56:38.812Z,4.73
2018-04-22T10:59:07.942Z,4.50
2018-04-22T11:01:36.347Z,4.33
2018-04-22T11:04:04.801Z,4.40
2018-04-22T11:06:33.907Z,4.17
2018-04-22T11:09:02.229Z,4.03
2018-04-22T11:11:30.590Z,4.30
2018-04-22T11:13:58.967Z,4.23
2018-04-22T11:16:27.326Z,3.83
2018-04-22T11:18:56.459Z,3.80
2018-04-22T11:21:24.845Z,3.53
2018-04-22T11:23:53.265Z,3.80
2018-04-22T11:26:21.591Z,3.93
2018-04-22T11:28:49.932Z,4.20
2018-04-22T11:31:18.326Z,3.63
2018-04-22T11:33:46.659Z,4.00
2018-04-22T11:36:15.076Z,4.40
2018-04-22T11:38:44.189Z,4.00
2018-04-22T11:41:12.567Z,3.90
2018-04-22T11:43:40.912Z,3.57
2018-04-22T11:46:09.325Z,4.60
2018-04-22T11:48:37.682Z,4.03
2018-04-22T11:51:06.857Z,4.33
2018-04-22T11:53:35.285Z,4.20
2018-04-22T11:56:04.440Z,4.53
2018-04-22T11:58:32.804Z,4.10
2018-04-22T12:01:01.198Z,5.00
2018-04-22T12:03:29.568Z,4.20
2018-04-22T12:05:57.984Z,4.33
2018-04-22T12:08:26.296Z,4.60
2018-04-22T12:10:54.691Z,4.17
2018-04-22T12:13:23.017Z,3.83
2018-04-22T12:15:52.103Z,3.97
2018-04-22T12:18:21.184Z,4.47
2018-04-22T12:20:49.508Z,4.30
2018-04-22T12:23:17.799Z,4.50
2018-04-22T12:25:46.107Z,4.50
2018-04-22T12:28:14.425Z,3.87
2018-04-22T12:30:42.804Z,4.73
2018-04-22T12:33:11.128Z,3.97
2018-04-22T12:35:39.501Z,4.13
2018-04-22T12:38:07.936Z,4.27
2018-04-22T12:40:36.300Z,4.03
2018-04-22T12:43:05.392Z,3.87
2018-04-22T12:45:34.608Z,4.00
2018-04-22T12:48:02.949Z,4.03
2018-04-22T12:50:31.306Z,4.00
2018-04-22T12:52:59.606Z,3.90
2018-04-22T12:55:28.000Z,3.70
2018-04-22T12:57:56.283Z,3.93
2018-04-22T13:00:24.599Z,3.30
2018-04-22T13:02:52.896Z,3.57
2018-04-22T13:05:21.216Z,3.97
2018-04-22T13:07:50.285Z,3.40
2018-04-22T13:10:19.384Z,4.10
2018-04-22T13:12:47.739Z,4.10
2018-04-22T13:15:16.147Z,4.17
2018-04-22T13:17:44.514Z,3.63
2018-04-22T13:20:12.931Z,3.90
2018-04-22T13:22:41.327Z,3.33
2018-04-22T13:25:09.667Z,3.30
2018-04-22T13:27:37.971Z,3.30
2018-04-22T13:30:06.358Z,3.40
2018-04-22T13:32:34.669Z,3.30
2018-04-22T13:35:02.974Z,3.33
2018-04-22T13:37:31.299Z,3.40
2018-04-22T13:39:59.633Z,2.80
2018-04-22T13:42:27.947Z,3.00
2018-04-22T13:44:56.229Z,3.17
2018-04-22T13:47:24.562Z,3.33
2018-04-22T13:49:53.721Z,3.07
2018-04-22T13:52:22.032Z,2.87
2018-04-22T13:54:50.321Z,3.17
2018-04-22T13:57:18.651Z,2.70
2018-04-22T13:59:46.952Z,3.10
2018-04-22T14:02:15.278Z,3.00
2018-04-22T14:04:44.319Z,3.00
2018-04-22T14:07:12.645Z,2.60
2018-04-22T14:09:41.717Z,3.03
2018-04-22T14:12:10.055Z,2.90
2018-04-22T14:14:38.361Z,3.07
2018-04-22T14:17:06.682Z,2.73
2018-04-22T14:19:35.727Z,2.37
2018-04-22T14:22:04.828Z,2.60
2018-04-22T14:24:33.095Z,2.80
2018-04-22T14:27:01.507Z,2.73
2018-04-22T14:29:29.795Z,2.50
2018-04-22T14:31:58.871Z,3.10
2018-04-22T14:34:27.166Z,2.90
2018-04-22T14:36:56.253Z,2.63
2018-04-22T14:39:24.539Z,2.77
2018-04-22T14:41:52.866Z,3.33
2018-04-22T14:47:24.712Z,2.80
2018-04-22T14:49:56.436Z,2.70
2018-04-22T14:52:24.748Z,3.03
2018-04-22T14:54:53.053Z,2.80
2018-04-22T14:57:21.364Z,2.87
2018-04-22T14:59:49.658Z,2.80
2018-04-22T15:02:17.964Z,2.97
2018-04-22T15:04:46.275Z,2.90
2018-04-22T15:07:14.580Z,2.70
2018-04-22T15:09:42.869Z,3.07
2018-04-22T15:12:11.964Z,2.57
2018-04-22T15:14:40.240Z,2.87
2018-04-22T15:17:09.321Z,3.13
2018-04-22T15:19:38.383Z,3.33
2018-04-22T15:22:06.701Z,3.33
2018-04-22T15:24:35.774Z,2.50
2018-04-22T15:27:04.083Z,3.10
2018-04-22T15:29:33.168Z,3.10
2018-04-22T15:32:01.617Z,2.57
2018-04-22T15:34:30.026Z,3.30
2018-04-22T15:36:58.387Z,2.67
2018-04-22T15:39:26.724Z,3.23
2018-04-22T15:41:55.088Z,3.37
2018-04-22T15:44:23.381Z,3.30
2018-04-22T15:46:51.704Z,3.67
2018-04-22T15:49:20.009Z,2.60
2018-04-22T15:51:49.119Z,3.30
2018-04-22T15:54:17.408Z,3.33
2018-04-22T15:56:45.707Z,2.83
2018-04-22T15:59:14.027Z,3.50
2018-04-22T16:01:43.089Z,3.80
2018-04-22T16:04:11.425Z,3.73
2018-04-22T16:06:39.715Z,3.23
2018-04-22T16:09:08.032Z,3.50
2018-04-22T16:11:36.312Z,2.90
2018-04-22T16:14:04.623Z,3.60
2018-04-22T16:16:33.676Z,2.97
2018-04-22T16:19:02.038Z,3.13
2018-04-22T16:21:30.325Z,3.00
2018-04-22T16:23:58.646Z,3.07
2018-04-22T16:26:27.695Z,2.97
2018-04-22T16:28:56.026Z,3.37
2018-04-22T16:31:25.083Z,2.97
2018-04-22T16:33:53.392Z,3.83
2018-04-22T16:36:22.453Z,3.30
2018-04-22T16:38:50.775Z,3.27
2018-04-22T16:41:19.057Z,3.00
2018-04-22T16:43:47.374Z,3.20
2018-04-22T16:46:15.679Z,3.60
2018-04-22T16:48:43.992Z,3.30
2018-04-22T16:51:12.272Z,3.00
2018-04-22T16:53:40.588Z,3.40
2018-04-22T16:56:08.874Z,3.73
2018-04-22T16:58:37.193Z,3.07
2018-04-22T17:01:06.236Z,3.43
2018-04-22T17:03:34.552Z,3.03
2018-04-22T17:06:03.600Z,3.33
2018-04-22T17:08:32.682Z,3.33
2018-04-22T17:11:00.975Z,3.00
2018-04-22T17:13:29.281Z,3.20
2018-04-22T17:15:57.561Z,2.97
2018-04-22T17:18:25.868Z,3.47
2018-04-22T17:20:54.173Z,3.57
2018-04-22T17:23:22.498Z,4.13
2018-04-22T17:25:50.791Z,3.37
2018-04-22T17:28:19.873Z,3.43
2018-04-22T17:30:48.980Z,3.47
2018-04-22T17:33:17.379Z,2.90
2018-04-22T17:35:45.757Z,3.37
2018-04-22T17:38:14.244Z,3.07
2018-04-22T17:40:42.666Z,3.47
2018-04-22T17:43:11.101Z,3.53
2018-04-22T17:45:39.453Z,3.80
2018-04-22T17:48:08.572Z,3.60
2018-04-22T17:50:36.900Z,3.30
2018-04-22T17:53:05.182Z,5.53
2018-04-22T17:55:33.500Z,5.47
2018-04-22T17:58:01.799Z,5.27
2018-04-22T18:00:30.104Z,3.20
2018-04-22T18:02:58.399Z,3.90
2018-04-22T18:05:26.710Z,3.23
2018-04-22T18:07:54.995Z,2.93
2018-04-22T18:10:23.299Z,3.17
2018-04-22T18:12:52.351Z,3.50
2018-04-22T18:15:21.437Z,3.57
2018-04-22T18:17:50.484Z,3.70
2018-04-22T18:20:18.833Z,4.10
2018-04-22T18:22:47.148Z,3.53
2018-04-22T18:25:15.450Z,3.63
2018-04-22T18:27:43.753Z,3.83
2018-04-22T18:30:12.117Z,4.03
2018-04-22T18:32:41.189Z,4.30
2018-04-22T18:35:09.508Z,10.23
2018-04-22T18:37:37.800Z,4.60
2018-04-22T18:40:06.128Z,4.40
2018-04-22T18:42:34.433Z,3.57
2018-04-22T18:45:02.762Z,3.90
2018-04-22T18:47:31.052Z,3.83
2018-04-22T18:49:59.419Z,4.00
2018-04-22T18:52:27.705Z,4.27
2018-04-22T18:54:56.030Z,3.80
2018-04-22T18:57:24.322Z,6.93
2018-04-22T18:59:52.696Z,6.83
2018-04-22T19:02:20.979Z,6.87
2018-04-22T19:04:49.293Z,5.20
2018-04-22T19:07:17.637Z,4.93
2018-04-22T19:09:45.970Z,4.43
2018-04-22T19:12:14.284Z,4.00
2018-04-22T19:14:42.592Z,4.10
2018-04-22T19:17:10.892Z,4.23
2018-04-22T19:19:39.213Z,4.20
2018-04-22T19:22:07.595Z,4.37
2018-04-22T19:24:35.954Z,4.70
2018-04-22T19:27:04.304Z,4.27
2018-04-22T19:29:32.659Z,4.20
2018-04-22T19:32:01.056Z,12.40
2018-04-22T19:34:29.373Z,6.87
2018-04-22T19:36:57.662Z,4.30
2018-04-22T19:39:25.991Z,4.23
2018-04-22T19:41:54.290Z,4.60
2018-04-22T19:44:23.380Z,3.83
2018-04-22T19:46:51.688Z,4.13
2018-04-22T19:49:20.001Z,4.57
2018-04-22T19:51:48.296Z,4.10
2018-04-22T19:54:16.629Z,4.17
2018-04-22T19:56:44.972Z,4.57
2018-04-22T19:59:13.488Z,4.27
2018-04-22T20:01:41.855Z,8.40
2018-04-22T20:04:10.226Z,16.47
2018-04-22T20:06:38.651Z,5.40
2018-04-22T20:09:07.001Z,4.60
2018-04-22T20:11:35.424Z,4.60
2018-04-22T20:14:03.785Z,4.90
2018-04-22T20:16:32.235Z,4.70
2018-04-22T20:19:00.901Z,4.33
2018-04-22T20:21:29.649Z,4.67
2018-04-22T20:23:58.405Z,5.20
2018-04-22T20:26:27.305Z,4.53
2018-04-22T20:28:56.036Z,4.83
2018-04-22T20:31:24.602Z,4.40
2018-04-22T20:33:53.108Z,4.90
2018-04-22T20:36:22.305Z,4.63
2018-04-22T20:38:50.616Z,4.80
2018-04-22T20:41:18.938Z,4.47
2018-04-22T20:43:47.227Z,4.80
2018-04-22T20:46:15.554Z,4.90
2018-04-22T20:48:43.874Z,4.90
2018-04-22T20:51:12.190Z,4.70
2018-04-22T20:53:40.507Z,4.90
2018-04-22T20:56:09.594Z,4.70
2018-04-22T20:58:37.881Z,4.80
2018-04-22T21:01:06.978Z,5.27
2018-04-22T21:03:35.267Z,4.90
2018-04-22T21:06:03.593Z,5.13
2018-04-22T21:08:31.882Z,4.80
2018-04-22T21:11:00.198Z,4.73
2018-04-22T21:13:29.246Z,5.13
2018-04-22T21:15:57.568Z,5.30
2018-04-22T21:18:25.866Z,5.37
2018-04-22T21:20:54.205Z,4.93
2018-04-22T21:23:22.491Z,5.03
2018-04-22T21:25:51.008Z,5.23
2018-04-22T21:28:20.138Z,5.30
2018-04-22T21:30:48.524Z,5.10
2018-04-22T21:33:16.889Z,5.67
2018-04-22T21:35:45.332Z,5.37
2018-04-22T21:38:13.688Z,5.80
2018-04-22T21:40:42.232Z,5.43
2018-04-22T21:43:10.640Z,5.13
2018-04-22T21:45:39.010Z,4.77
2018-04-22T21:48:07.456Z,5.53
2018-04-22T21:50:35.954Z,5.77
2018-04-22T21:53:04.379Z,4.33
2018-04-22T21:55:33.534Z,5.57
2018-04-22T21:58:01.960Z,5.37
2018-04-22T22:00:30.308Z,5.57
2018-04-22T22:02:58.723Z,6.20
2018-04-22T22:05:27.068Z,6.07
2018-04-22T22:07:55.459Z,4.93
2018-04-22T22:10:23.786Z,5.33
2018-04-22T22:12:52.951Z,5.20
2018-04-22T22:15:21.285Z,5.37
2018-04-22T22:17:49.636Z,6.17
2018-04-22T22:20:17.979Z,5.50
2018-04-22T22:22:46.316Z,4.93
2018-04-22T22:25:14.605Z,5.40
2018-04-22T22:27:42.921Z,5.57
2018-04-22T22:30:11.210Z,5.37
2018-04-22T22:32:39.536Z,6.10
2018-04-22T22:35:07.837Z,5.53
2018-04-22T22:37:36.925Z,6.33
2018-04-22T22:40:05.234Z,5.30
2018-04-22T22:42:33.575Z,5.53
2018-04-22T22:45:01.867Z,5.60
2018-04-22T22:47:30.947Z,5.30
2018-04-22T22:49:59.244Z,5.37
2018-04-22T22:52:27.569Z,4.97
2018-04-22T22:54:56.632Z,6.50
2018-04-22T22:57:24.955Z,5.57
2018-04-22T22:59:53.256Z,5.63
2018-04-22T23:02:21.581Z,5.43
2018-04-22T23:04:49.869Z,5.33
2018-04-22T23:07:18.978Z,6.50
2018-04-22T23:09:47.278Z,5.83
2018-04-22T23:12:15.585Z,5.40
2018-04-22T23:14:43.873Z,5.97
2018-04-22T23:17:12.186Z,5.93
2018-04-22T23:19:40.511Z,5.27
2018-04-22T23:22:09.252Z,5.33
2018-04-22T23:24:38.808Z,5.73
2018-04-22T23:27:07.536Z,5.27
2018-04-22T23:29:36.213Z,5.53
2018-04-22T23:32:05.057Z,5.70
2018-04-22T23:34:33.750Z,5.87
2018-04-22T23:37:03.282Z,6.00
2018-04-22T23:39:32.056Z,5.30
2018-04-22T23:42:00.860Z,5.47
2018-04-22T23:44:30.381Z,5.67
2018-04-22T23:46:59.091Z,5.80
2018-04-22T23:49:28.247Z,6.17
2018-04-22T23:51:57.064Z,5.20
2018-04-22T23:54:25.831Z,5.23
2018-04-22T23:56:55.413Z,6.13
2018-04-22T23:59:24.197Z,5.87
